Time;durP1;ratioP1;P1;durP2;ratioP2;P2;SDS_P1;SDS_P2;PMS_P1;PMS_P2;Temp;Humidity;BMP_temperature;BMP_pressure;BME280_temperature;BME280_humidity;BME280_pressure;Samples;Min_cycle;Max_cycle;Signal;HPM_P1;HPM_P2
2022/08/07 00:02:01;;;;;;;2.08;1.00;;;28.30;60.90;;;;;;10830633;32;20344;-70
2022/08/07 00:08:04;;;;;;;1.10;0.70;;;28.30;60.70;;;;;;10830393;32;20055;-71
2022/08/07 00:14:06;;;;;;;0.60;0.60;;;28.20;60.70;;;;;;10828125;32;20015;-71
2022/08/07 00:20:09;;;;;;;1.05;0.75;;;28.20;60.70;;;;;;10830008;32;20038;-71
2022/08/07 00:26:11;;;;;;;1.23;1.00;;;28.00;60.80;;;;;;10828347;32;20286;-71
2022/08/07 00:32:14;;;;;;;0.57;0.55;;;28.00;60.80;;;;;;10830449;32;20298;-71
2022/08/07 00:38:16;;;;;;;2.05;1.08;;;27.80;60.80;;;;;;10833635;32;20070;-70
2022/08/07 00:44:19;;;;;;;1.42;0.88;;;27.60;61.00;;;;;;10833753;32;20024;-71
2022/08/07 00:50:21;;;;;;;1.37;1.00;;;27.50;61.10;;;;;;10833673;32;20047;-70
2022/08/07 00:56:23;;;;;;;1.40;0.90;;;27.70;61.00;;;;;;10835604;32;20024;-71
2022/08/07 01:02:25;;;;;;;2.05;0.88;;;27.70;60.80;;;;;;10836770;32;20024;-71
2022/08/07 01:08:28;;;;;;;1.30;0.82;;;27.70;60.80;;;;;;10836600;32;20424;-71
2022/08/07 01:14:30;;;;;;;2.17;1.33;;;27.80;60.90;;;;;;10836305;32;20024;-71
2022/08/07 01:20:40;;;;;;;0.82;0.70;;;27.80;60.70;;;;;;10834122;32;20032;-71
2022/08/07 01:26:42;;;;;;;2.08;1.10;;;27.80;60.70;;;;;;10835692;32;20328;-71
2022/08/07 01:32:46;;;;;;;3.75;0.60;;;27.60;60.90;;;;;;10464833;32;12098513;-72
2022/08/07 01:38:49;;;;;;;1.37;0.98;;;27.30;61.00;;;;;;10829648;32;20050;-71
2022/08/07 01:44:52;;;;;;;1.60;1.15;;;27.20;61.20;;;;;;10815299;32;20031;-72
2022/08/07 01:50:59;;;;;;;1.17;0.90;;;27.00;61.50;;;;;;10830841;32;20023;-71
2022/08/07 01:57:06;;;;;;;1.95;0.95;;;27.00;61.40;;;;;;10829508;32;20040;-72
2022/08/07 02:03:14;;;;;;;1.03;0.70;;;26.90;61.30;;;;;;10831810;32;20020;-72
2022/08/07 02:09:19;;;;;;;2.17;0.85;;;26.80;61.20;;;;;;10833630;32;20232;-72
2022/08/07 02:15:23;;;;;;;1.08;0.80;;;26.80;61.10;;;;;;10830074;32;20028;-70
2022/08/07 02:21:26;;;;;;;1.23;0.52;;;26.90;61.00;;;;;;10829737;33;20032;-72
2022/08/07 02:27:29;;;;;;;3.62;0.75;;;26.70;61.10;;;;;;10831716;32;20023;-71
2022/08/07 02:33:33;;;;;;;1.45;0.88;;;26.60;61.20;;;;;;10829517;32;20032;-71
2022/08/07 02:39:42;;;;;;;0.68;0.52;;;26.30;61.50;;;;;;10833472;32;20047;-72
2022/08/07 02:45:46;;;;;;;0.50;0.50;;;26.20;61.60;;;;;;10829876;32;20032;-71
2022/08/07 02:51:51;;;;;;;1.23;0.85;;;26.10;61.80;;;;;;10826482;32;20389;-71
2022/08/07 02:57:58;;;;;;;0.88;0.65;;;26.00;62.00;;;;;;10828012;32;20050;-72
2022/08/07 03:04:01;;;;;;;1.55;0.98;;;25.80;62.30;;;;;;10827967;32;20047;-73
2022/08/07 03:10:04;;;;;;;2.87;1.10;;;25.80;62.30;;;;;;10829812;32;20036;-72
2022/08/07 03:16:07;;;;;;;1.12;0.60;;;25.70;63.20;;;;;;10832227;32;20360;-72
2022/08/07 03:22:10;;;;;;;1.52;1.00;;;25.60;62.70;;;;;;10831801;32;20032;-72
2022/08/07 03:28:17;;;;;;;1.33;0.93;;;25.80;62.60;;;;;;10831699;32;20412;-71
2022/08/07 03:34:20;;;;;;;1.40;1.07;;;26.10;62.60;;;;;;10831460;32;20024;-71
2022/08/07 03:40:23;;;;;;;1.52;1.00;;;26.30;62.50;;;;;;10829319;32;20020;-71
2022/08/07 03:46:27;;;;;;;1.73;1.45;;;26.40;62.60;;;;;;10831175;32;20185;-71
2022/08/07 03:52:30;;;;;;;1.27;1.12;;;26.50;62.90;;;;;;10831040;32;20423;-71
2022/08/07 03:58:33;;;;;;;1.85;1.10;;;26.50;62.90;;;;;;10830613;32;20042;-71
2022/08/07 04:04:35;;;;;;;1.90;1.05;;;26.50;62.90;;;;;;10830639;32;20016;-71
2022/08/07 04:10:40;;;;;;;2.45;1.15;;;26.50;62.70;;;;;;10826218;33;20020;-71
2022/08/07 04:16:51;;;;;;;1.33;1.23;;;26.10;63.00;;;;;;10829919;32;20387;-71
2022/08/07 04:22:54;;;;;;;3.22;0.90;;;25.80;63.50;;;;;;10830327;32;20435;-70
2022/08/07 04:28:57;;;;;;;1.05;0.80;;;25.60;63.60;;;;;;10852816;27;20073;-70
2022/08/07 04:35:10;;;;;;;2.30;1.30;;;25.80;63.40;;;;;;10904426;32;20020;-70
2022/08/07 04:41:12;;;;;;;0.73;0.60;;;25.80;64.20;;;;;;10904196;32;20023;-71
2022/08/07 04:47:38;;;;;;;1.05;0.95;;;25.80;64.50;;;;;;10904099;32;20058;-71
2022/08/07 04:54:23;;;;;;;2.92;1.30;;;25.60;64.30;;;;;;10789555;32;20055;-71
2022/08/07 05:00:41;;;;;;;1.40;1.30;;;25.70;64.10;;;;;;10788319;32;20393;-70
2022/08/07 05:07:17;;;;;;;1.25;0.90;;;26.00;63.80;;;;;;10786814;32;20023;-70
2022/08/07 05:13:29;;;;;;;0.90;0.80;;;25.80;63.70;;;;;;10788486;32;20051;-71
2022/08/07 05:19:40;;;;;;;3.97;1.12;;;25.70;64.00;;;;;;10788881;32;20043;-71
2022/08/07 05:26:00;;;;;;;1.45;1.02;;;25.80;63.80;;;;;;10795120;33;20044;-71
2022/08/07 05:32:03;;;;;;;1.48;0.90;;;25.90;63.60;;;;;;10910145;32;20042;-71
2022/08/07 05:38:13;;;;;;;3.25;1.30;;;25.80;63.60;;;;;;10877183;32;20024;-71
2022/08/07 05:44:19;;;;;;;0.93;0.85;;;25.80;63.60;;;;;;10872416;32;20408;-71
2022/08/07 05:50:22;;;;;;;1.55;0.82;;;25.70;63.70;;;;;;10872181;32;20024;-71
2022/08/07 05:56:29;;;;;;;1.42;0.98;;;25.90;63.30;;;;;;10871989;32;20016;-71
2022/08/07 06:02:35;;;;;;;3.35;0.98;;;25.90;63.10;;;;;;10871730;32;20051;-72
2022/08/07 06:08:40;;;;;;;1.55;0.82;;;25.80;63.10;;;;;;10871645;32;20048;-72
2022/08/07 06:14:42;;;;;;;1.37;0.98;;;25.90;63.00;;;;;;10871384;32;20027;-71
2022/08/07 06:20:45;;;;;;;3.62;1.27;;;26.00;62.80;;;;;;10871248;32;20423;-71
2022/08/07 06:26:48;;;;;;;3.97;1.12;;;26.40;62.50;;;;;;10866806;32;20344;-72
2022/08/07 06:32:51;;;;;;;7.47;1.65;;;26.70;62.20;;;;;;10870616;32;20414;-71
2022/08/07 06:38:54;;;;;;;1.50;1.20;;;26.90;62.00;;;;;;10866618;32;20404;-72
2022/08/07 06:44:57;;;;;;;2.03;0.82;;;26.90;61.90;;;;;;10865233;32;20024;-71
2022/08/07 06:51:06;;;;;;;1.23;0.93;;;27.00;61.80;;;;;;10866002;32;20050;-72
2022/08/07 06:57:09;;;;;;;2.05;0.80;;;27.10;61.50;;;;;;10865643;32;20055;-71
2022/08/07 07:03:13;;;;;;;2.50;1.40;;;27.20;61.50;;;;;;10867827;32;20024;-72
2022/08/07 07:09:24;;;;;;;1.62;0.95;;;27.30;61.40;;;;;;10864626;32;20027;-71
2022/08/07 07:15:33;;;;;;;1.87;1.05;;;27.30;61.40;;;;;;10868830;32;20023;-71
2022/08/07 07:21:39;;;;;;;1.10;0.90;;;27.20;61.50;;;;;;10865436;32;20023;-71
2022/08/07 07:28:11;;;;;;;1.50;1.40;;;27.00;62.30;;;;;;10865028;32;20024;-71
2022/08/07 07:34:18;;;;;;;2.60;1.48;;;26.80;63.00;;;;;;10864355;32;20027;-70
2022/08/07 07:40:40;;;;;;;2.20;1.40;;;26.60;63.80;;;;;;10864446;32;20019;-69
2022/08/07 07:46:44;;;;;;;4.03;2.17;;;26.60;64.10;;;;;;10863335;32;20031;-70
2022/08/07 07:53:11;;;;;;;2.40;1.62;;;26.50;64.90;;;;;;10867001;32;20036;-70
2022/08/07 07:59:15;;;;;;;4.00;2.53;;;26.40;65.20;;;;;;10865806;32;20418;-71
2022/08/07 08:05:18;;;;;;;3.47;2.45;;;26.40;65.50;;;;;;10863892;32;20063;-70
2022/08/07 08:11:25;;;;;;;1.52;1.40;;;26.40;65.90;;;;;;10863264;32;20028;-71
2022/08/07 08:17:30;;;;;;;1.70;1.15;;;26.50;65.50;;;;;;10863502;32;20031;-72
2022/08/07 08:30:54;;;;;;;2.12;1.50;;;26.70;64.80;;;;;;10863935;32;20435;-71
2022/08/07 08:37:12;;;;;;;5.65;1.42;;;26.60;64.50;;;;;;10864754;32;20019;-71
2022/08/07 08:43:18;;;;;;;;;;;26.70;64.40;;;;;;10864206;32;20031;-70
2022/08/07 08:49:46;;;;;;;3.70;2.10;;;26.60;64.50;;;;;;10864079;32;19927;-70
2022/08/07 08:55:58;;;;;;;5.13;1.43;;;26.40;64.40;;;;;;10864959;32;20075;-72
2022/08/07 09:02:21;;;;;;;4.87;2.03;;;26.30;65.10;;;;;;10869621;32;20039;-70
2022/08/07 09:08:42;;;;;;;3.25;2.25;;;26.20;66.20;;;;;;10870735;32;20035;-71
2022/08/07 09:15:13;;;;;;;4.55;2.53;;;26.10;66.60;;;;;;10858972;32;20066;-73
2022/08/07 09:21:30;;;;;;;1.42;1.23;;;26.30;66.50;;;;;;10870265;32;20028;-71
2022/08/07 09:28:18;;;;;;;4.35;3.17;;;26.40;66.90;;;;;;10855615;32;20050;-71
2022/08/07 09:34:42;;;;;;;3.08;2.47;;;26.50;67.10;;;;;;10793839;33;20066;-69
2022/08/07 09:41:16;;;;;;;2.42;1.73;;;26.60;67.10;;;;;;10793397;33;20024;-69
2022/08/07 09:47:46;;;;;;;4.15;2.95;;;26.80;66.70;;;;;;10786396;33;20071;-69
2022/08/07 09:53:54;;;;;;;4.45;1.90;;;26.90;66.50;;;;;;10791604;33;20467;-69
2022/08/07 10:00:12;;;;;;;2.10;1.67;;;27.00;66.20;;;;;;10789897;33;20032;-70
2022/08/07 10:06:42;;;;;;;3.03;1.75;;;27.10;65.60;;;;;;10902451;32;20023;-70
2022/08/07 10:13:16;;;;;;;3.08;2.25;;;27.20;65.30;;;;;;10897469;32;20023;-69
2022/08/07 10:19:43;;;;;;;2.80;2.05;;;27.30;65.10;;;;;;10853893;32;20035;-69
2022/08/07 10:26:03;;;;;;;1.80;1.45;;;27.30;65.30;;;;;;10868977;32;20028;-69
2022/08/07 10:32:15;;;;;;;3.05;2.35;;;27.20;65.80;;;;;;10866772;32;20317;-69
2022/08/07 10:38:26;;;;;;;4.68;2.72;;;27.00;66.20;;;;;;10866777;32;20372;-70
2022/08/07 10:45:00;;;;;;;4.25;2.08;;;26.80;66.30;;;;;;10867057;32;20039;-70
2022/08/07 10:51:31;;;;;;;3.50;1.73;;;26.70;66.00;;;;;;10866662;32;20023;-71
2022/08/07 10:58:23;;;;;;;3.35;1.85;;;26.50;66.10;;;;;;10866336;32;20042;-72
2022/08/07 11:04:49;;;;;;;4.20;2.42;;;26.30;66.20;;;;;;10852736;32;20012;-71
2022/08/07 11:11:15;;;;;;;3.90;2.42;;;26.20;67.00;;;;;;10865330;32;20024;-68
2022/08/07 11:17:46;;;;;;;4.68;2.03;;;25.80;68.00;;;;;;10851580;32;20054;-69
2022/08/07 11:24:08;;;;;;;2.80;2.05;;;25.80;67.80;;;;;;10851997;32;20427;-69
2022/08/07 11:30:15;;;;;;;5.78;3.67;;;25.90;67.60;;;;;;10864484;32;20020;-68
2022/08/07 11:36:33;;;;;;;2.08;1.50;;;25.80;68.00;;;;;;10864995;32;20038;-69
2022/08/07 11:42:59;;;;;;;3.93;2.83;;;25.80;68.60;;;;;;10864323;32;20058;-68
2022/08/07 11:49:20;;;;;;;2.70;1.50;;;25.90;68.60;;;;;;10865863;32;20024;-69
2022/08/07 11:55:59;;;;;;;3.05;1.98;;;26.10;68.80;;;;;;10866230;32;20551;-68
2022/08/07 12:02:20;;;;;;;2.97;1.90;;;26.20;68.70;;;;;;10865269;32;20035;-69
2022/08/07 12:08:54;;;;;;;3.35;2.30;;;26.20;68.90;;;;;;10865362;32;20024;-68
2022/08/07 12:15:04;;;;;;;3.60;2.08;;;26.20;68.50;;;;;;10850241;32;20343;-68
2022/08/07 12:21:30;;;;;;;2.92;1.67;;;26.30;68.20;;;;;;10864032;32;20038;-68
2022/08/07 12:27:39;;;;;;;2.28;1.42;;;26.30;68.10;;;;;;10684325;27;20052;-69
2022/08/07 12:33:44;;;;;;;1.75;1.33;;;26.40;67.60;;;;;;10747666;33;20059;-68
2022/08/07 12:39:50;;;;;;;2.25;1.50;;;26.70;66.90;;;;;;10749539;33;20341;-68
2022/08/07 12:52:33;;;;;;;3.35;1.85;;;26.90;66.60;;;;;;10749289;33;20029;-68
2022/08/07 12:59:09;;;;;;;3.03;2.03;;;26.90;66.30;;;;;;10753249;33;20071;-68
2022/08/07 13:05:14;;;;;;;2.83;1.77;;;27.00;66.10;;;;;;10856556;32;20312;-68
2022/08/07 13:11:51;;;;;;;3.03;1.80;;;27.00;66.00;;;;;;10864112;32;20019;-69
2022/08/07 13:18:12;;;;;;;2.08;1.33;;;27.10;66.10;;;;;;10863838;32;20058;-68
2022/08/07 13:24:47;;;;;;;3.55;1.73;;;27.10;66.10;;;;;;10862062;32;20389;-68
2022/08/07 13:30:57;;;;;;;3.75;2.30;;;27.30;66.00;;;;;;10859595;32;20397;-69
2022/08/07 13:37:32;;;;;;;2.62;1.95;;;27.60;65.80;;;;;;10866011;32;20077;-69
2022/08/07 13:44:02;;;;;;;1.83;1.10;;;27.90;65.50;;;;;;10716701;33;20435;-69
2022/08/07 13:50:08;;;;;;;3.20;2.05;;;28.10;65.00;;;;;;10720959;33;20067;-69
2022/08/07 13:56:18;;;;;;;2.00;1.47;;;28.30;64.90;;;;;;10719317;33;20028;-69
2022/08/07 14:02:25;;;;;;;1.92;1.48;;;28.30;64.60;;;;;;10720883;33;20377;-70
2022/08/07 14:08:28;;;;;;;1.75;1.40;;;28.40;64.50;;;;;;10718099;33;20051;-68
2022/08/07 14:14:42;;;;;;;4.85;1.73;;;28.70;64.10;;;;;;10719565;33;20036;-69
2022/08/07 14:20:49;;;;;;;2.97;1.55;;;29.00;63.60;;;;;;10847751;32;20028;-69
2022/08/07 14:26:58;;;;;;;2.80;1.80;;;29.20;63.00;;;;;;10870901;32;20133;-70
2022/08/07 14:33:03;;;;;;;1.67;1.50;;;29.30;62.60;;;;;;10870925;32;20043;-70
2022/08/07 14:39:07;;;;;;;1.70;1.20;;;29.20;62.70;;;;;;10868662;32;20426;-69
2022/08/07 14:45:11;;;;;;;1.37;1.15;;;29.10;62.60;;;;;;10870429;32;20023;-70
2022/08/07 14:51:27;;;;;;;2.70;1.50;;;29.00;62.30;;;;;;10869537;32;20377;-71
2022/08/07 14:57:31;;;;;;;1.95;1.50;;;29.20;62.00;;;;;;10857352;32;20068;-70
2022/08/07 15:03:34;;;;;;;1.35;0.90;;;29.30;61.60;;;;;;10832379;32;20016;-70
2022/08/07 15:09:43;;;;;;;1.77;1.27;;;29.40;61.10;;;;;;10830750;32;20349;-70
2022/08/07 15:15:49;;;;;;;1.60;1.27;;;29.60;60.40;;;;;;10831842;32;20050;-72
2022/08/07 15:21:57;;;;;;;2.15;1.35;;;29.60;60.10;;;;;;10831598;32;20048;-70
2022/08/07 15:28:03;;;;;;;2.45;1.42;;;29.70;59.60;;;;;;10830278;32;20020;-71
2022/08/07 15:34:06;;;;;;;1.27;1.08;;;29.80;59.30;;;;;;10827138;33;20050;-70
2022/08/07 15:40:14;;;;;;;1.95;1.10;;;29.90;59.20;;;;;;10829508;32;20049;-70
2022/08/07 15:46:21;;;;;;;1.60;1.05;;;30.10;58.60;;;;;;10828175;32;20070;-71
2022/08/07 15:52:25;;;;;;;2.35;1.37;;;30.10;58.20;;;;;;10842802;32;20027;-71
2022/08/07 15:58:56;;;;;;;1.17;0.85;;;29.90;58.40;;;;;;10867623;32;20023;-70
2022/08/07 16:05:02;;;;;;;2.08;1.40;;;29.80;58.40;;;;;;10863940;32;20016;-71
2022/08/07 16:11:07;;;;;;;1.95;1.45;;;29.70;58.60;;;;;;10863805;32;20054;-71
2022/08/07 16:17:28;;;;;;;2.15;1.67;;;29.60;58.80;;;;;;10864022;32;20059;-70
2022/08/07 16:23:53;;;;;;;2.67;1.80;;;29.40;58.80;;;;;;10863198;32;20317;-71
2022/08/07 16:30:06;;;;;;;2.65;1.73;;;29.30;58.90;;;;;;10863745;32;20082;-71
2022/08/07 16:36:42;;;;;;;1.23;1.10;;;29.30;59.00;;;;;;10863652;32;20407;-71
2022/08/07 16:42:57;;;;;;;1.67;1.30;;;29.30;58.90;;;;;;10863434;32;20062;-71
2022/08/07 16:49:46;;;;;;;1.67;1.27;;;29.40;58.70;;;;;;10849760;32;20023;-71
2022/08/07 16:56:11;;;;;;;2.53;1.08;;;29.30;58.80;;;;;;10865615;32;20042;-71
2022/08/07 17:02:51;;;;;;;1.98;1.40;;;29.30;58.90;;;;;;10849008;32;20046;-71
2022/08/07 17:09:20;;;;;;;1.48;1.02;;;29.40;58.80;;;;;;10866356;32;20054;-71
2022/08/07 17:15:37;;;;;;;1.92;1.35;;;29.50;58.70;;;;;;10715503;33;20291;-70
2022/08/07 17:21:49;;;;;;;1.85;1.40;;;29.40;58.80;;;;;;10719427;33;20064;-71
2022/08/07 17:28:09;;;;;;;1.30;0.98;;;29.40;58.80;;;;;;10710159;33;20059;-71
2022/08/07 17:34:38;;;;;;;2.30;1.45;;;29.60;58.50;;;;;;10717944;33;20052;-70
2022/08/07 17:40:59;;;;;;;1.02;0.90;;;30.20;57.60;;;;;;10721988;33;20419;-70
2022/08/07 17:47:20;;;;;;;1.67;1.37;;;30.10;57.60;;;;;;10721663;33;20009;-70
2022/08/07 17:53:55;;;;;;;1.35;1.10;;;29.80;58.20;;;;;;10858666;32;20065;-70
2022/08/07 18:00:10;;;;;;;1.48;1.15;;;29.60;58.70;;;;;;10719747;33;20037;-70
2022/08/07 18:06:14;;;;;;;1.92;1.40;;;29.30;59.10;;;;;;10721313;33;20149;-71
2022/08/07 18:12:52;;;;;;;1.05;0.82;;;29.20;59.40;;;;;;10721024;33;20033;-70
2022/08/07 18:19:14;;;;;;;1.50;1.17;;;29.00;59.60;;;;;;10708199;33;20063;-70
2022/08/07 18:25:24;;;;;;;1.77;0.90;;;28.90;59.80;;;;;;10716418;33;20047;-69
2022/08/07 18:32:00;;;;;;;1.67;1.25;;;28.80;59.90;;;;;;10737520;32;20035;-70
2022/08/07 18:38:21;;;;;;;0.85;0.60;;;28.60;59.90;;;;;;10870801;32;20011;-69
2022/08/07 18:44:35;;;;;;;0.88;0.77;;;28.50;60.00;;;;;;10866447;32;20280;-69
2022/08/07 18:50:45;;;;;;;0.70;0.68;;;28.30;59.80;;;;;;10870376;32;20024;-69
2022/08/07 18:56:55;;;;;;;2.55;1.23;;;28.30;59.80;;;;;;10868290;32;20070;-69
2022/08/07 19:03:11;;;;;;;1.42;0.55;;;28.20;59.70;;;;;;10869728;32;20020;-70
2022/08/07 19:09:26;;;;;;;0.47;0.35;;;28.20;59.70;;;;;;10869387;32;20046;-69
2022/08/07 19:15:43;;;;;;;0.37;0.37;;;28.10;59.50;;;;;;10868062;32;20039;-70
2022/08/07 19:22:03;;;;;;;0.50;0.40;;;28.10;59.40;;;;;;10868740;32;20053;-70
2022/08/07 19:28:16;;;;;;;5.22;0.55;;;28.00;59.40;;;;;;10868352;32;20050;-70
2022/08/07 19:34:36;;;;;;;0.20;0.20;;;28.00;59.30;;;;;;10868411;32;20324;-70
2022/08/07 19:40:40;;;;;;;1.35;0.55;;;28.00;59.20;;;;;;10866674;32;20036;-71
2022/08/07 19:46:51;;;;;;;0.73;0.70;;;27.90;59.20;;;;;;10866685;32;20046;-71
2022/08/07 19:52:53;;;;;;;0.80;0.45;;;27.80;59.20;;;;;;10868008;32;20024;-71
2022/08/07 19:58:57;;;;;;;0.98;0.45;;;27.80;59.30;;;;;;10867825;32;20046;-71
2022/08/07 20:05:05;;;;;;;0.50;0.40;;;27.70;59.40;;;;;;10863149;32;20081;-71
2022/08/07 20:11:21;;;;;;;0.43;0.30;;;27.50;59.60;;;;;;10855216;32;20426;-71
2022/08/07 20:17:34;;;;;;;0.60;0.43;;;27.50;59.50;;;;;;10866172;32;20032;-71
2022/08/07 20:23:43;;;;;;;0.43;0.30;;;27.50;59.50;;;;;;10867056;32;20046;-71
2022/08/07 20:29:51;;;;;;;0.57;0.50;;;27.30;59.70;;;;;;10870858;27;20039;-70
2022/08/07 20:35:54;;;;;;;;;;;27.30;59.70;;;;;;10866979;32;20422;-70
2022/08/07 20:41:57;;;;;;;3.60;0.85;;;27.30;59.70;;;;;;10866903;32;20248;-70
2022/08/07 20:48:10;;;;;;;0.43;0.35;;;27.30;59.70;;;;;;10853532;32;20042;-70
2022/08/07 20:54:15;;;;;;;0.40;0.30;;;27.30;59.50;;;;;;10873316;32;20024;-70
2022/08/07 21:00:20;;;;;;;1.60;1.00;;;27.30;59.60;;;;;;10860793;32;20028;-69
2022/08/07 21:06:24;;;;;;;1.58;1.00;;;27.30;59.60;;;;;;10874250;32;20423;-70
2022/08/07 21:12:30;;;;;;;2.25;0.55;;;27.30;59.70;;;;;;10873926;32;20020;-70
2022/08/07 21:18:37;;;;;;;0.60;0.50;;;27.30;59.80;;;;;;10873572;32;20020;-70
2022/08/07 21:25:01;;;;;;;0.52;0.50;;;27.20;59.90;;;;;;10873556;32;20049;-70
2022/08/07 21:31:25;;;;;;;1.00;0.57;;;27.20;59.80;;;;;;10873133;32;20016;-69
2022/08/07 21:37:33;;;;;;;0.90;0.82;;;27.10;59.80;;;;;;10871942;32;20023;-70
2022/08/07 21:44:01;;;;;;;3.20;1.42;;;27.10;59.90;;;;;;10859591;32;20054;-70
2022/08/07 21:50:24;;;;;;;1.58;0.93;;;27.00;60.00;;;;;;10866847;32;20028;-70
2022/08/07 21:56:32;;;;;;;1.17;0.70;;;27.00;60.10;;;;;;10835243;32;20044;-70
2022/08/07 22:09:53;;;;;;;1.75;1.20;;;26.80;60.30;;;;;;10830836;32;20032;-70
2022/08/07 22:16:07;;;;;;;1.83;1.10;;;26.80;60.30;;;;;;10834576;32;20047;-70
2022/08/07 22:22:19;;;;;;;2.08;1.12;;;26.80;60.30;;;;;;10835424;32;20020;-70
2022/08/07 22:28:31;;;;;;;2.28;1.17;;;26.80;60.30;;;;;;10833981;32;20337;-70
2022/08/07 22:34:44;;;;;;;1.85;1.40;;;26.80;60.50;;;;;;10832107;32;20020;-69
2022/08/07 22:41:10;;;;;;;2.25;1.27;;;26.80;60.60;;;;;;10832821;32;20057;-70
2022/08/07 22:47:41;;;;;;;1.55;0.90;;;26.80;60.80;;;;;;10833370;32;20047;-70
2022/08/07 22:54:13;;;;;;;1.20;0.80;;;26.70;60.90;;;;;;10833353;32;20400;-70
2022/08/07 23:00:26;;;;;;;1.80;1.20;;;26.70;60.80;;;;;;10833038;32;20439;-70
2022/08/07 23:07:17;;;;;;;1.48;1.02;;;26.70;60.80;;;;;;10831365;32;20062;-70
2022/08/07 23:13:41;;;;;;;1.15;0.80;;;26.60;61.00;;;;;;10716004;33;20104;-70
2022/08/07 23:20:22;;;;;;;0.73;0.68;;;26.60;60.90;;;;;;10716649;33;20029;-70
2022/08/07 23:26:45;;;;;;;1.58;1.23;;;26.50;61.00;;;;;;10647306;33;20410;-70
2022/08/07 23:32:50;;;;;;;1.23;1.08;;;26.50;60.90;;;;;;10646232;33;20413;-70
2022/08/07 23:39:38;;;;;;;2.30;1.25;;;26.50;61.00;;;;;;10645758;33;20056;-71
2022/08/07 23:46:05;;;;;;;1.17;0.88;;;26.30;61.10;;;;;;10589101;33;20147;-72
2022/08/07 23:52:15;;;;;;;1.65;0.98;;;26.10;61.40;;;;;;10681181;33;20060;-72
2022/08/07 23:58:25;;;;;;;1.30;0.80;;;25.90;61.60;;;;;;10681042;33;20044;-71
